Lee's Summit, MO

11:36 AM CDT on May 26, 2015 (GMT -0500)
Lee's Summit Municipal | | Change Station
CLOSE
Current Station
Airport
Location: Lee's Summit,
Elevation: 1004 ft
Nearby Weather Stations

Elev 1004 ft 38.96 °N, 94.37 °W | Updated 43 minutes ago

Clear
Clear
70 °F
Feels Like 70 °F
N
16
Wind Variable Wind from SW
Gusts 22 mph

Today
High -- | Low -- °F
--% Chance of Precip.
Yesterday
High -- | Low -- °F
Precip. -- in
5:56 AM 8:32 PM
First Quarter, 59% visible
Pressure 29.85 in
Visibility 10.0 miles
Clouds Clear
Dew Point 61 °F
Humidity 73%
Rainfall 0.52 in
Snow Depth Not available.
UV 9 out of 12
Pollen 7.90 out of 12
Air Quality Not available.
Flu Activity Sporadic
METAR KLXT 261553Z AUTO 22014G19KT 10SM CLR 21/16 A2987 RMK AO2 SLP108 T02110161

More Conditions Fewer Conditions

Pressure 29.85 in
Visibility 10.0 miles
Clouds Clear
Dew Point 61 °F
Humidity 73%
Rainfall 0.52 in
Snow Depth Not available.
UV 9 out of 12
Pollen 7.90 out of 12
Air Quality Not available.
Flu Activity Sporadic
METAR KLXT 261553Z AUTO 22014G19KT 10SM CLR 21/16 A2987 RMK AO2 SLP108 T02110161

More Conditions Fewer Conditions

10-Day Weather Forecast

Almanac

Astronomy

May. 26, 2015 Rise Set
Actual Time
Civil Twilight
Nautical Twilight
Astronomical Twilight
Moon
Length of Visible Light
Length of Day
Tomorrow will be .
, % of the Moon is Illuminated

Today's Extremes

State Highs State Lows

Community

WunderPhotos

Upload Photos

1,824,379 photos uploaded!

WunderBlogs® & News

Nearby

Air Quality

  Air Quality AQ Index Pollutant
Not available.

Snow Depth

Station Depth Elevation

Earthquake Activity

City Distance Mag. Time & Date
Minimum magnitude displayed is 2.5.

Coastal Water Temperatures

Place Temperature

Stations

Nearby Weather Stations

Station Location Temp. Windchill Dew Point Humidity Wind Precip. Elev Updated Type